createdAt,value
2018-12-05T00:00:06.238Z,10.90
2018-12-05T00:02:47.050Z,6.23
2018-12-05T00:05:19.488Z,10.80
2018-12-05T00:07:51.448Z,9.07
2018-12-05T00:10:25.796Z,10.30
2018-12-05T00:12:57.669Z,8.33
2018-12-05T00:15:33.963Z,8.90
2018-12-05T00:18:06.051Z,12.13
2018-12-05T00:20:41.288Z,10.30
2018-12-05T00:23:13.642Z,8.67
2018-12-05T00:25:46.289Z,17.83
2018-12-05T00:28:18.290Z,6.77
2018-12-05T00:30:55.155Z,13.17
2018-12-05T00:33:29.658Z,9.43
2018-12-05T00:39:05.520Z,6.73
2018-12-05T00:41:37.585Z,8.50
2018-12-05T00:44:11.816Z,11.97
2018-12-05T00:46:46.143Z,8.57
2018-12-05T00:49:18.863Z,7.40
2018-12-05T00:51:50.465Z,8.07
2018-12-05T00:54:22.654Z,17.43
2018-12-05T00:56:54.896Z,13.20
2018-12-05T00:59:26.798Z,19.60
2018-12-05T01:01:58.833Z,20.87
2018-12-05T01:04:33.227Z,27.27
2018-12-05T01:07:05.876Z,24.47
2018-12-05T01:09:40.545Z,29.27
2018-12-05T01:15:11.353Z,34.47
2018-12-05T01:17:44.200Z,28.77
2018-12-05T01:20:19.506Z,27.73
2018-12-05T01:22:51.241Z,29.10
2018-12-05T01:25:28.441Z,28.50
2018-12-05T01:28:00.839Z,19.80
2018-12-05T01:30:32.730Z,19.67
2018-12-05T01:33:05.341Z,17.57
2018-12-05T01:35:37.790Z,20.03
2018-12-05T01:38:18.101Z,16.47
2018-12-05T01:40:52.560Z,13.23
2018-12-05T01:43:28.826Z,9.37
2018-12-05T01:46:02.983Z,10.77
2018-12-05T01:48:34.736Z,13.40
2018-12-05T01:51:07.423Z,15.80
2018-12-05T01:56:36.050Z,12.67
2018-12-05T01:59:08.157Z,14.97
2018-12-05T02:01:50.557Z,8.93
2018-12-05T02:04:23.089Z,9.90
2018-12-05T02:06:55.102Z,10.77
2018-12-05T02:09:27.234Z,16.27
2018-12-05T02:11:59.621Z,10.37
2018-12-05T02:14:31.166Z,15.30
2018-12-05T02:17:04.061Z,9.83
2018-12-05T02:19:38.375Z,14.20
2018-12-05T02:22:10.698Z,10.07
2018-12-05T02:24:47.566Z,10.23
2018-12-05T02:27:20.440Z,16.00
2018-12-05T02:29:58.376Z,16.80
2018-12-05T02:32:36.470Z,13.90
2018-12-05T02:35:08.261Z,18.83
2018-12-05T02:37:40.104Z,19.17
2018-12-05T02:40:12.682Z,14.70
2018-12-05T02:42:44.367Z,17.47
2018-12-05T02:45:18.916Z,16.50
2018-12-05T02:47:51.254Z,15.17
2018-12-05T02:50:22.806Z,16.90
2018-12-05T02:52:55.200Z,17.03
2018-12-05T02:55:29.577Z,17.10
2018-12-05T03:00:57.852Z,22.00
2018-12-05T03:03:32.463Z,14.67
2018-12-05T03:06:05.392Z,15.17
2018-12-05T03:08:37.036Z,17.20
2018-12-05T03:11:09.221Z,19.53
2018-12-05T03:13:43.352Z,21.13
2018-12-05T03:16:15.181Z,16.67
2018-12-05T03:18:47.009Z,21.03
2018-12-05T03:21:23.739Z,14.93
2018-12-05T03:23:58.381Z,16.27
2018-12-05T03:26:32.337Z,19.90
2018-12-05T03:29:06.849Z,24.53
2018-12-05T03:31:41.860Z,18.80
2018-12-05T03:34:16.621Z,22.33
2018-12-05T03:36:50.578Z,18.47
2018-12-05T03:39:24.680Z,20.93
2018-12-05T03:41:58.916Z,19.97
2018-12-05T03:44:30.924Z,20.17
2018-12-05T03:47:05.192Z,22.90
2018-12-05T03:49:37.795Z,21.57
2018-12-05T03:52:10.069Z,17.50
2018-12-05T03:57:41.072Z,16.20
2018-12-05T04:00:15.134Z,16.43
2018-12-05T04:02:49.495Z,19.53
2018-12-05T04:05:24.547Z,22.50
2018-12-05T04:07:56.193Z,17.77
2018-12-05T04:10:28.378Z,17.13
2018-12-05T04:13:02.917Z,23.83
2018-12-05T04:15:35.123Z,16.37
2018-12-05T04:18:09.647Z,22.33
2018-12-05T04:20:44.364Z,22.13
2018-12-05T04:26:12.066Z,15.00
2018-12-05T04:28:46.252Z,25.70
2018-12-05T04:31:20.233Z,14.30
2018-12-05T04:33:52.106Z,28.50
2018-12-05T04:36:24.249Z,19.03
2018-12-05T04:38:56.531Z,21.60
2018-12-05T04:41:28.520Z,21.13
2018-12-05T04:44:01.995Z,20.10
2018-12-05T04:46:34.608Z,19.93
2018-12-05T04:49:06.759Z,17.00
2018-12-05T04:51:41.230Z,19.13
2018-12-05T04:54:16.149Z,18.40
2018-12-05T04:56:48.525Z,21.70
2018-12-05T04:59:23.109Z,26.93
2018-12-05T05:01:55.095Z,22.13
2018-12-05T05:07:24.490Z,24.47
2018-12-05T05:09:56.280Z,25.93
2018-12-05T05:12:30.528Z,25.23
2018-12-05T05:15:02.451Z,22.37
2018-12-05T05:17:32.183Z,27.63
2018-12-05T05:20:04.677Z,22.93
2018-12-05T05:22:38.705Z,21.37
2018-12-05T05:25:11.233Z,24.67
2018-12-05T05:27:49.372Z,24.00
2018-12-05T05:30:23.441Z,20.17
2018-12-05T05:35:55.199Z,17.37
2018-12-05T05:38:29.122Z,19.30
2018-12-05T05:41:01.612Z,19.60
2018-12-05T05:43:42.218Z,21.90
2018-12-05T05:46:18.876Z,19.93
2018-12-05T05:48:53.688Z,19.10
2018-12-05T05:51:25.727Z,22.48
2018-12-05T05:53:57.444Z,18.77
2018-12-05T05:56:29.681Z,17.83
2018-12-05T05:59:03.933Z,17.27
2018-12-05T06:01:36.434Z,17.60
2018-12-05T06:04:13.166Z,20.63
2018-12-05T06:06:47.074Z,18.07
2018-12-05T06:09:20.957Z,16.93
2018-12-05T06:11:54.863Z,18.97
2018-12-05T06:14:28.947Z,20.20
2018-12-05T06:17:02.984Z,19.87
2018-12-05T06:19:37.055Z,24.53
2018-12-05T06:22:11.887Z,26.77
2018-12-05T06:24:43.661Z,24.67
2018-12-05T06:27:21.781Z,17.33
2018-12-05T06:29:55.950Z,19.40
2018-12-05T06:32:27.920Z,21.13
2018-12-05T06:34:59.844Z,14.80
2018-12-05T06:37:31.877Z,20.73
2018-12-05T06:40:04.128Z,19.90
2018-12-05T06:42:40.580Z,17.57
2018-12-05T06:45:12.120Z,26.27
2018-12-05T06:47:46.893Z,22.37
2018-12-05T06:50:19.628Z,22.50
2018-12-05T06:52:54.465Z,17.93
2018-12-05T06:55:29.068Z,16.27
2018-12-05T06:58:03.649Z,17.47
2018-12-05T07:00:35.526Z,21.87
2018-12-05T07:03:07.184Z,18.27
2018-12-05T07:05:40.127Z,16.77
2018-12-05T07:08:15.069Z,20.27
2018-12-05T07:10:49.801Z,22.53
2018-12-05T07:13:21.900Z,22.73
2018-12-05T07:15:56.215Z,27.70
2018-12-05T07:18:28.973Z,18.67
2018-12-05T07:23:54.426Z,21.13
2018-12-05T07:26:26.976Z,22.67
2018-12-05T07:28:59.349Z,22.40
2018-12-05T07:31:27.887Z,20.13
2018-12-05T07:34:02.357Z,17.77
2018-12-05T07:36:36.747Z,16.90
2018-12-05T07:39:07.685Z,17.80
2018-12-05T07:41:36.521Z,25.67
2018-12-05T07:44:05.039Z,17.63
2018-12-05T07:46:33.494Z,22.03
2018-12-05T07:49:02.032Z,23.17
2018-12-05T07:51:30.484Z,13.33
2018-12-05T07:53:59.057Z,21.37
2018-12-05T07:56:27.647Z,21.67
2018-12-05T07:58:56.210Z,20.90
2018-12-05T08:01:28.551Z,24.80
2018-12-05T08:04:00.354Z,34.40
2018-12-05T08:06:34.669Z,23.17
2018-12-05T08:09:08.981Z,21.43
2018-12-05T08:11:40.767Z,24.83
2018-12-05T08:14:12.785Z,20.23
2018-12-05T08:16:45.105Z,16.73
2018-12-05T08:19:17.016Z,20.47
2018-12-05T08:21:48.988Z,25.77
2018-12-05T08:24:20.884Z,18.37
2018-12-05T08:27:07.402Z,15.27
2018-12-05T08:29:36.075Z,21.10
2018-12-05T08:32:11.512Z,14.90
2018-12-05T08:34:40.102Z,20.33
2018-12-05T08:37:12.444Z,17.67
2018-12-05T08:39:49.798Z,18.87
2018-12-05T08:42:30.064Z,19.70
2018-12-05T08:45:04.536Z,19.27
2018-12-05T08:47:40.098Z,17.23
2018-12-05T08:50:09.212Z,19.33
2018-12-05T08:52:43.183Z,18.83
2018-12-05T08:55:11.844Z,19.07
2018-12-05T08:57:43.010Z,24.30
2018-12-05T09:00:17.294Z,20.67
2018-12-05T09:02:55.466Z,21.03
2018-12-05T09:15:20.492Z,18.97
2018-12-05T09:18:00.127Z,23.57
2018-12-05T09:26:37.391Z,17.37
2018-12-05T09:29:28.805Z,16.40
2018-12-05T09:32:11.991Z,18.33
2018-12-05T09:34:48.420Z,21.13
2018-12-05T09:37:31.625Z,20.60
2018-12-05T09:40:04.350Z,20.40
2018-12-05T09:45:32.860Z,22.93
2018-12-05T09:48:05.467Z,27.27
2018-12-05T09:50:55.496Z,26.60
2018-12-05T09:53:42.039Z,19.77
2018-12-05T09:56:18.629Z,21.43
2018-12-05T09:58:53.000Z,21.70
2018-12-05T10:01:29.595Z,18.17
2018-12-05T10:04:01.780Z,23.77
2018-12-05T10:06:47.026Z,19.70
2018-12-05T10:09:20.017Z,21.33
2018-12-05T10:11:52.257Z,21.10
2018-12-05T10:14:27.189Z,19.57
2018-12-05T10:17:08.075Z,23.10
2018-12-05T10:19:40.739Z,20.47
2018-12-05T10:22:15.463Z,18.30
2018-12-05T10:24:48.322Z,17.23
2018-12-05T10:27:20.656Z,18.17
2018-12-05T10:29:57.628Z,20.97
2018-12-05T10:32:29.549Z,18.63
2018-12-05T10:35:02.171Z,23.57
2018-12-05T10:37:36.696Z,17.77
2018-12-05T10:40:05.740Z,19.13
2018-12-05T10:42:37.625Z,17.83
2018-12-05T10:45:12.204Z,14.73
2018-12-05T10:47:46.279Z,17.67
2018-12-05T10:50:20.663Z,13.40
2018-12-05T10:52:55.476Z,15.70
2018-12-05T10:55:27.076Z,15.27
2018-12-05T10:57:59.253Z,17.77
2018-12-05T11:01:39.937Z,20.30
2018-12-05T11:07:14.899Z,14.03
2018-12-05T11:10:03.026Z,13.27
2018-12-05T11:12:40.055Z,19.40
2018-12-05T11:15:18.241Z,14.20
2018-12-05T11:17:57.751Z,15.70
2018-12-05T11:20:39.853Z,15.53
2018-12-05T11:23:15.083Z,12.83
2018-12-05T11:25:50.365Z,15.30
2018-12-05T11:28:24.845Z,15.23
2018-12-05T11:31:11.792Z,16.17
2018-12-05T11:33:46.255Z,15.67
2018-12-05T11:36:18.193Z,15.70
2018-12-05T11:38:48.350Z,18.23
2018-12-05T11:41:20.685Z,17.10
2018-12-05T11:43:55.283Z,21.23
2018-12-05T11:46:27.155Z,25.27
2018-12-05T11:48:59.372Z,25.67
2018-12-05T11:51:34.131Z,21.27
2018-12-05T11:54:06.607Z,20.57
2018-12-05T11:56:43.061Z,19.07
2018-12-05T11:59:14.900Z,23.43
2018-12-05T12:01:51.758Z,22.13
2018-12-05T12:04:24.303Z,19.73
2018-12-05T12:06:58.494Z,20.27
2018-12-05T12:09:32.592Z,19.10
2018-12-05T12:12:04.431Z,24.50
2018-12-05T12:14:36.094Z,20.20
2018-12-05T12:17:08.563Z,25.60
2018-12-05T12:19:41.340Z,20.80
2018-12-05T12:22:13.659Z,22.33
2018-12-05T12:24:47.745Z,19.97
2018-12-05T12:27:19.448Z,22.10
2018-12-05T12:29:51.625Z,22.60
2018-12-05T12:32:24.321Z,21.37
2018-12-05T12:35:05.165Z,19.27
2018-12-05T12:37:37.586Z,20.30
2018-12-05T12:40:22.140Z,25.23
2018-12-05T12:42:54.423Z,23.27
2018-12-05T12:45:22.960Z,23.97
2018-12-05T12:50:22.487Z,24.23
2018-12-05T12:52:56.669Z,27.13
2018-12-05T12:55:28.397Z,26.13
2018-12-05T13:00:56.752Z,28.20
2018-12-05T13:03:28.680Z,26.97
2018-12-05T13:06:00.745Z,26.70
2018-12-05T13:08:32.770Z,28.23
2018-12-05T13:11:21.843Z,32.07
2018-12-05T13:14:01.021Z,37.27
2018-12-05T13:16:48.168Z,29.93
2018-12-05T13:22:36.205Z,30.07
2018-12-05T13:34:16.593Z,31.37
2018-12-05T13:36:52.203Z,34.43
2018-12-05T13:39:24.776Z,40.30
2018-12-05T13:42:07.163Z,48.57
2018-12-05T13:44:40.779Z,40.30
2018-12-05T13:47:27.664Z,38.13
2018-12-05T13:50:00.469Z,33.67
2018-12-05T14:00:12.087Z,33.83
2018-12-05T14:05:42.984Z,39.03
2018-12-05T14:08:15.534Z,37.50
2018-12-05T14:10:50.430Z,39.73
2018-12-05T14:34:43.672Z,40.63
2018-12-05T14:37:15.549Z,38.77
2018-12-05T14:39:47.872Z,40.13
2018-12-05T14:42:22.407Z,37.73
2018-12-05T14:44:57.447Z,39.67
2018-12-05T14:47:28.046Z,42.13
2018-12-05T14:50:03.066Z,42.50
2018-12-05T14:52:35.898Z,36.73
2018-12-05T14:55:15.031Z,34.20
2018-12-05T15:00:53.099Z,37.77
2018-12-05T15:03:35.639Z,35.77
2018-12-05T15:06:08.247Z,36.53
2018-12-05T15:08:40.565Z,42.23
2018-12-05T15:11:14.989Z,38.47
2018-12-05T15:16:42.722Z,37.20
2018-12-05T15:19:15.100Z,36.93
2018-12-05T15:21:50.060Z,37.67
2018-12-05T15:24:34.883Z,40.27
2018-12-05T15:27:23.024Z,37.17
2018-12-05T15:29:55.492Z,38.63
2018-12-05T15:32:34.044Z,35.77
2018-12-05T15:35:08.263Z,36.00
2018-12-05T15:37:43.060Z,39.93
2018-12-05T15:40:14.604Z,33.40
2018-12-05T15:42:46.390Z,35.47
2018-12-05T15:48:12.083Z,36.13
2018-12-05T15:50:44.063Z,36.50
2018-12-05T15:53:13.356Z,37.17
2018-12-05T15:55:45.809Z,32.07
2018-12-05T15:58:22.472Z,33.67
2018-12-05T16:03:47.283Z,31.30
2018-12-05T16:06:15.759Z,33.77
2018-12-05T16:08:44.318Z,33.27
2018-12-05T16:11:12.783Z,28.97
2018-12-05T16:13:41.261Z,39.80
2018-12-05T16:16:09.801Z,32.50
2018-12-05T16:18:38.276Z,34.67
2018-12-05T16:21:06.719Z,31.93
2018-12-05T16:23:35.188Z,34.65
2018-12-05T16:26:10.417Z,30.10
2018-12-05T16:28:34.328Z,24.53
2018-12-05T16:31:03.264Z,33.13
2018-12-05T16:33:33.075Z,35.83
2018-12-05T16:36:01.751Z,28.77
2018-12-05T16:38:30.381Z,30.87
2018-12-05T16:40:58.837Z,27.60
2018-12-05T16:43:27.264Z,29.83
2018-12-05T16:45:55.688Z,26.10
2018-12-05T16:48:24.266Z,32.03
2018-12-05T16:50:52.682Z,27.77
2018-12-05T16:53:21.183Z,23.37
2018-12-05T16:55:49.687Z,27.37
2018-12-05T16:58:18.114Z,25.77
2018-12-05T17:00:46.603Z,28.87
2018-12-05T17:03:15.089Z,27.67
2018-12-05T17:05:43.484Z,29.33
2018-12-05T17:08:12.912Z,26.53
2018-12-05T17:10:41.332Z,29.23
2018-12-05T17:13:11.727Z,23.87
2018-12-05T17:15:58.981Z,28.13
2018-12-05T17:18:27.562Z,26.93
2018-12-05T17:20:56.101Z,26.90
2018-12-05T17:23:36.368Z,29.63
2018-12-05T17:26:05.154Z,24.40
2018-12-05T17:31:37.785Z,24.90
2018-12-05T17:34:06.239Z,26.77
2018-12-05T17:36:34.742Z,29.43
2018-12-05T17:39:04.111Z,26.47
2018-12-05T17:41:32.600Z,27.10
2018-12-05T17:44:01.280Z,27.73
2018-12-05T17:46:29.739Z,25.00
2018-12-05T17:48:58.344Z,29.40
2018-12-05T17:51:27.269Z,32.47
2018-12-05T17:53:55.767Z,20.77
2018-12-05T17:56:24.460Z,26.90
2018-12-05T17:59:02.776Z,25.77
2018-12-05T18:01:31.584Z,26.90
2018-12-05T18:04:19.779Z,27.00
2018-12-05T18:06:49.488Z,23.20
2018-12-05T18:09:31.560Z,26.60
2018-12-05T18:12:00.312Z,22.77
2018-12-05T18:14:28.908Z,28.33
2018-12-05T18:16:58.367Z,29.10
2018-12-05T18:19:27.646Z,24.70
2018-12-05T18:21:56.266Z,27.13
2018-12-05T18:24:24.739Z,28.20
2018-12-05T18:26:53.408Z,32.07
2018-12-05T18:29:22.059Z,34.63
2018-12-05T18:31:50.647Z,24.97
2018-12-05T18:34:19.236Z,26.37
2018-12-05T18:36:47.798Z,25.73
2018-12-05T18:39:21.452Z,27.97
2018-12-05T18:41:50.187Z,31.07
2018-12-05T18:44:19.040Z,29.23
2018-12-05T18:46:48.370Z,31.97
2018-12-05T18:49:16.860Z,25.80
2018-12-05T18:51:45.509Z,28.37
2018-12-05T18:54:14.869Z,25.70
2018-12-05T18:57:09.249Z,26.57
2018-12-05T18:59:34.896Z,25.40
2018-12-05T19:02:03.367Z,20.90
2018-12-05T19:04:31.888Z,21.50
2018-12-05T19:07:00.323Z,22.33
2018-12-05T19:09:28.767Z,32.77
2018-12-05T19:11:57.205Z,35.10
2018-12-05T19:14:30.870Z,23.67
2018-12-05T19:16:59.339Z,24.73
2018-12-05T19:19:30.490Z,25.77
2018-12-05T19:21:59.055Z,26.90
2018-12-05T19:24:28.216Z,23.33
2018-12-05T19:26:57.034Z,27.07
2018-12-05T19:29:25.465Z,25.40
2018-12-05T19:31:53.979Z,25.37
2018-12-05T19:34:22.689Z,23.10
2018-12-05T19:36:51.200Z,20.43
2018-12-05T19:39:19.728Z,28.87
2018-12-05T19:41:48.260Z,27.97
2018-12-05T19:44:16.707Z,24.90
2018-12-05T19:46:45.100Z,29.57
2018-12-05T19:49:13.669Z,28.07
2018-12-05T19:51:42.334Z,30.93
2018-12-05T19:54:11.354Z,27.47
2018-12-05T19:56:39.898Z,29.00
2018-12-05T19:59:08.287Z,21.40
2018-12-05T20:01:36.744Z,27.00
2018-12-05T20:04:05.304Z,22.50
2018-12-05T20:06:33.703Z,29.53
2018-12-05T20:09:02.209Z,22.70
2018-12-05T20:11:30.689Z,25.93
2018-12-05T20:13:59.485Z,21.00
2018-12-05T20:16:28.021Z,21.97
2018-12-05T20:18:56.459Z,27.90
2018-12-05T20:21:24.999Z,23.93
2018-12-05T20:23:53.475Z,21.70
2018-12-05T20:26:21.935Z,35.57
2018-12-05T20:29:04.238Z,24.37
2018-12-05T20:31:32.749Z,22.53
2018-12-05T20:34:01.238Z,22.90
2018-12-05T20:36:29.787Z,26.03
2018-12-05T20:38:58.298Z,24.50
2018-12-05T20:41:32.386Z,24.27
2018-12-05T20:43:57.233Z,29.33
2018-12-05T20:46:25.714Z,20.97
2018-12-05T20:48:54.175Z,18.80
2018-12-05T20:51:22.656Z,28.60
2018-12-05T20:53:51.075Z,26.70
2018-12-05T20:56:19.482Z,20.03
2018-12-05T20:58:47.978Z,32.53
2018-12-05T21:01:16.468Z,23.23
2018-12-05T21:03:44.875Z,23.97
2018-12-05T21:06:13.300Z,29.60
2018-12-05T21:08:41.788Z,20.80
2018-12-05T21:11:10.285Z,29.93
2018-12-05T21:13:38.820Z,24.83
2018-12-05T21:16:07.263Z,20.43
2018-12-05T21:18:35.706Z,21.00
2018-12-05T21:21:04.286Z,23.47
2018-12-05T21:23:32.855Z,26.30
2018-12-05T21:26:01.272Z,19.13
2018-12-05T21:28:29.713Z,29.33
2018-12-05T21:30:58.124Z,26.83
2018-12-05T21:33:26.543Z,23.73
2018-12-05T21:35:54.949Z,23.33
2018-12-05T21:38:23.495Z,28.53
2018-12-05T21:40:51.953Z,28.07
2018-12-05T21:43:20.341Z,19.20
2018-12-05T21:45:48.823Z,30.03
2018-12-05T21:48:17.303Z,24.77
2018-12-05T21:50:45.719Z,27.00
2018-12-05T21:53:14.353Z,22.37
2018-12-05T21:55:43.066Z,26.17
2018-12-05T21:58:11.543Z,24.10
2018-12-05T22:00:39.981Z,19.90
2018-12-05T22:03:08.420Z,23.67
2018-12-05T22:05:36.963Z,19.07
2018-12-05T22:08:05.509Z,24.53
2018-12-05T22:10:33.928Z,21.00
2018-12-05T22:13:02.409Z,27.80
2018-12-05T22:15:30.819Z,27.90
2018-12-05T22:17:59.340Z,22.10
2018-12-05T22:20:29.704Z,25.47
2018-12-05T22:22:58.386Z,23.90
2018-12-05T22:25:26.939Z,18.63
2018-12-05T22:27:56.678Z,33.77
2018-12-05T22:30:26.772Z,22.73
2018-12-05T22:32:55.181Z,21.20
2018-12-05T22:35:23.656Z,17.47
2018-12-05T22:37:52.157Z,24.67
2018-12-05T22:40:20.645Z,29.77
2018-12-05T22:42:49.972Z,19.90
2018-12-05T22:45:18.444Z,19.93
2018-12-05T22:47:46.894Z,24.20
2018-12-05T22:50:15.311Z,23.83
2018-12-05T22:52:43.844Z,25.97
2018-12-05T22:55:12.327Z,17.90
2018-12-05T22:57:40.751Z,23.63
2018-12-05T23:00:16.224Z,24.63
2018-12-05T23:02:44.773Z,28.07
2018-12-05T23:05:13.319Z,25.00
2018-12-05T23:07:41.786Z,28.70
2018-12-05T23:10:10.365Z,31.43
2018-12-05T23:12:38.859Z,29.53
2018-12-05T23:15:07.370Z,26.60
2018-12-05T23:17:35.855Z,38.10
2018-12-05T23:20:04.977Z,42.20
2018-12-05T23:22:33.483Z,30.33
2018-12-05T23:25:01.976Z,24.90
2018-12-05T23:27:30.473Z,33.33
2018-12-05T23:29:58.944Z,30.77
2018-12-05T23:32:27.520Z,26.43
2018-12-05T23:34:56.077Z,26.17
2018-12-05T23:37:47.288Z,27.47
2018-12-05T23:40:22.307Z,24.23
2018-12-05T23:42:52.207Z,22.27
2018-12-05T23:45:26.733Z,24.00
2018-12-05T23:51:01.384Z,27.60
2018-12-05T23:53:33.098Z,23.63
2018-12-05T23:59:10.342Z,20.90
